Flight Track Log - Related Links

Times and Time Zones

All times are in EDT time to prevent confusion due to time zone crossing. See the EJA831 flight status page for this flight to view local times or setup timezone preferences in your user account.

Time Position Orientation Groundspeed Altitude Reporting Facility
EDT Latitude Longitude Course Direction KTS MPH feet Rate Location/Type
Sun 05:02:50 PM 45.4039 -84.9650 208° Southwest 162 186 4,600  Level Minneapolis Center
Sun 05:03:53 PM 45.3600 -85.0103 216° Southwest 193 222 8,600 3,600 Climbing Minneapolis Center
Sun 05:04:55 PM 45.3053 -85.0528 209° Southwest 206 237 12,100 2,952 Climbing Minneapolis Center
Sun 05:05:57 PM 45.2222 -85.1194 209° Southwest 256 295 14,700 2,226 Climbing Minneapolis Center
Sun 05:06:59 PM 45.1392 -85.1814 208° Southwest 303 349 16,700 1,839 Climbing Minneapolis Center
Sun 05:08:00 PM 44.9654 -85.2927 208° Southwest  Level FlightAware Approximate
Sun 05:08:01 PM 45.0525 -85.2508 210° Southwest 333 383 18,500  Level Minneapolis Center
Sun 05:09:03 PM 44.9633 -85.3219 209° Southwest 359 413 20,500 1,935 Climbing Minneapolis Center
Sun 05:10:05 PM 44.8706 -85.3911 208° Southwest 374 430 22,500 1,765 Climbing Minneapolis Center
Sun 05:11:19 PM 44.7806 -85.4611 209° Southwest 370 426 24,500 1,533 Climbing Minneapolis Center
Sun 05:12:22 PM 44.6703 -85.5508 210° Southwest 379 436 26,000 720 Climbing Minneapolis Center
Sun 05:13:24 PM 44.5806 -85.7047 231° Southwest 420 483 26,000  Level Minneapolis Center
Sun 05:14:26 PM 44.5064 -85.8356 232° Southwest 424 488 26,000  Level Minneapolis Center
Sun 05:15:28 PM 44.4306 -85.9650 231° Southwest 426 490 26,000  Level Minneapolis Center
Sun 05:16:30 PM 44.3317 -86.0592 214° Southwest 427 491 26,000 -290 Level Minneapolis Center
Sun 05:17:32 PM 44.2331 -86.1522 214° Southwest 428 493 25,400 -774 Descending Minneapolis Center
Sun 05:18:34 PM 44.1333 -86.2439 213° Southwest 427 491 24,400 -823 Descending Minneapolis Center
Sun 05:19:36 PM 44.0258 -86.3436 214° Southwest 424 488 23,700 -774 Descending Minneapolis Center
Sun 05:20:38 PM 43.9492 -86.4144 214° Southwest 418 481 22,800 -823 Descending Minneapolis Center
Sun 05:21:40 PM 43.8361 -86.5183 214° Southwest 410 472 22,000 -387 Descending Minneapolis Center
Sun 05:22:42 PM 43.7419 -86.6047 214° Southwest 409 471 22,000  Level Minneapolis Center
Sun 05:23:44 PM 43.6183 -86.6839 205° Southwest 412 474 22,000 -173 Level Minneapolis Center
Sun 05:24:26 PM 43.5578 -86.7206 204° Southwest 407 468 21,700 -923 Descending Chicago Center
Sun 05:25:28 PM 43.4558 -86.7794 203° Southwest 401 461 20,400 -1,500 Descending Chicago Center
Sun 05:26:30 PM 43.3361 -86.8481 203° Southwest 392 451 18,600 -1,500 Descending Chicago Center
Sun 05:27:32 PM 43.2378 -86.9039 202° Southwest 387 445 17,300 -1,597 Descending Chicago Center
Sun 05:28:34 PM 43.1419 -86.9594 203° Southwest 379 436 15,300 -1,597 Descending Chicago Center
Sun 05:29:36 PM 43.0500 -87.0106 202° Southwest 362 417 14,000 -629 Descending Chicago Center
Sun 05:30:38 PM 42.9597 -87.0633 203° Southwest 356 410 14,000 -919 Level Chicago Center
Sun 05:31:40 PM 42.8836 -87.1453 218° Southwest 353 406 12,100 -1,935 Descending Chicago Center
Sun 05:32:42 PM 42.8006 -87.2472 222° Southwest 337 388 10,000 -1,016 Descending Chicago Center
Sun 05:33:44 PM 42.7328 -87.3311 222° Southwest 331 381 10,000 -48 Level Chicago Center
Sun 05:34:46 PM 42.6619 -87.4169 222° Southwest 323 372 9,900 -960 Descending Chicago Center
Sun 05:35:49 PM 42.6044 -87.4881 222° Southwest 284 327 8,000 -1,872 Descending Chicago Center
Sun 05:36:51 PM 42.5481 -87.5556 221° Southwest 271 312 6,000 -1,887 Descending Chicago Center
Sun 05:37:53 PM 42.4947 -87.6219 223° Southwest 262 302 4,100 -968 Descending Chicago Center
Sun 05:38:55 PM 42.4308 -87.6936 220° Southwest 257 296 4,000 -194 Descending Chicago Center
Sun 05:39:57 PM 42.3797 -87.7558 222° Southwest 248 285 3,700 -484 Descending Chicago Center
Sun 05:40:59 PM 42.3383 -87.8100 224° Southwest 220 253 3,000 -339 Descending Chicago Center
Sun 05:42:01 PM 42.2917 -87.8617 219° Southwest 206 237 3,000 -339 Level Chicago Center
Sun 05:43:03 PM 42.2500 -87.9119 222° Southwest 203 234 2,300 -339 Descending Chicago Center
Sun 05:44:05 PM 42.2100 -87.9467 213° Southwest 189 217 2,300 -145 Level Chicago Center
Sun 05:45:07 PM 42.1714 -87.9353 168° South 160 184 2,000 -290 Descending Chicago Center
Sun 05:47:00 PM 42.1143 -87.9015 169° South  Level Estimated
Sun 05:54:00 PM 42.1143 -87.9015 169° South  Level Estimated

Login

Don't have an account? Register now (free) for customized features, flight alerts, and more!